Saddle River, New Jersey
Current Conditions -  °F | °C
As of 9:51 AM on Tuesday 21 Oct 2014 (Local Time) from KTEB Reporting Station
Scattered Clouds Scattered Clouds  
Wind Chill: 15°   Ceiling: Unl
Heat Index: 15°   Visibility: 10mi
Dew Point:   Wind: 5mph
Humidity: 64%   Direction: 360°N
Pressure: 29.9"   Gusts: NA
Location:  41.03°N, 74.1°W
Report Text: KTEB 211351Z 36004KT 10SM SCT070 15/08 A2990 RMK AO2 SLP123 T01500083
Loading
Personal Weather Stations






























Interactive Weather Map
Tropical Storm Tracking
New forecast layout! Learn more

10-Day Weather Forecast

Advertisements
Track Severe Weather on mobile